Time;durP1;ratioP1;P1;durP2;ratioP2;P2;SDS_P1;SDS_P2;PMS_P1;PMS_P2;Temp;Humidity;BMP_temperature;BMP_pressure;BME280_temperature;BME280_humidity;BME280_pressure;Samples;Min_cycle;Max_cycle;Signal;HPM_P1;HPM_P2
2023/02/03 00:00:56;;;;;;;17.45;4.25;;;9.10;99.90;;;;;;5001912;28;20041;-93
2023/02/03 00:03:29;;;;;;;17.55;3.42;;;9.10;99.90;;;;;;4991830;28;20014;-93
2023/02/03 00:05:55;;;;;;;20.00;3.67;;;9.10;99.90;;;;;;5000315;28;20372;-91
2023/02/03 00:08:27;;;;;;;15.57;3.50;;;9.10;99.90;;;;;;4998495;28;20121;-91
2023/02/03 00:10:53;;;;;;;19.58;3.55;;;9.20;99.90;;;;;;4998588;28;20030;-90
2023/02/03 00:13:27;;;;;;;17.50;4.22;;;9.20;99.90;;;;;;4982751;28;20129;-90
2023/02/03 00:15:53;;;;;;;17.67;3.60;;;9.10;99.90;;;;;;4982536;28;20038;-91
2023/02/03 00:18:19;;;;;;;17.40;3.70;;;9.20;99.90;;;;;;4998853;28;20030;-91
2023/02/03 00:20:44;;;;;;;18.73;3.92;;;9.20;99.90;;;;;;4998207;28;20045;-90
2023/02/03 00:23:12;;;;;;;21.85;3.28;;;9.20;99.90;;;;;;4982439;28;20038;-91
2023/02/03 00:25:39;;;;;;;17.73;3.45;;;9.20;99.90;;;;;;4999068;28;20045;-91
2023/02/03 00:28:13;;;;;;;16.23;3.03;;;9.20;99.90;;;;;;4984111;28;20042;-90
2023/02/03 00:30:40;;;;;;;18.83;3.58;;;9.20;99.90;;;;;;4986480;28;20045;-91
2023/02/03 00:33:06;;;;;;;15.73;3.08;;;9.20;99.90;;;;;;4968536;28;20081;-90
2023/02/03 00:35:32;;;;;;;15.30;2.70;;;9.20;99.90;;;;;;4998216;28;20072;-90
2023/02/03 00:38:10;;;;;;;17.45;3.58;;;9.10;99.90;;;;;;4982261;28;20030;-93
2023/02/03 00:40:36;;;;;;;16.98;3.78;;;9.20;99.90;;;;;;4999753;28;20044;-92
2023/02/03 00:43:02;;;;;;;14.23;3.10;;;9.20;99.90;;;;;;4983372;28;20066;-93
2023/02/03 00:45:28;;;;;;;17.05;3.78;;;9.20;99.90;;;;;;5002294;28;20100;-93
2023/02/03 00:48:02;;;;;;;16.65;3.22;;;9.20;99.90;;;;;;5000770;28;20042;-93
2023/02/03 00:50:27;;;;;;;16.63;3.67;;;9.20;99.90;;;;;;4999260;28;20038;-93
2023/02/03 00:52:53;;;;;;;20.40;3.75;;;9.20;99.90;;;;;;4982057;28;20034;-93
2023/02/03 00:55:19;;;;;;;23.52;3.70;;;9.20;99.90;;;;;;4997826;28;20061;-92
2023/02/03 00:57:50;;;;;;;19.65;3.83;;;9.20;99.90;;;;;;4981936;28;20129;-92
2023/02/03 01:00:17;;;;;;;23.08;3.97;;;9.20;99.90;;;;;;4966564;28;20394;-93
2023/02/03 01:02:46;;;;;;;13.50;3.28;;;9.30;99.90;;;;;;4982950;28;20092;-93
2023/02/03 01:05:12;;;;;;;20.80;4.38;;;9.20;99.90;;;;;;4998061;28;20033;-90
2023/02/03 01:07:39;;;;;;;16.98;4.05;;;9.20;99.90;;;;;;4998115;28;20133;-93
2023/02/03 01:10:06;;;;;;;22.13;4.53;;;9.20;99.90;;;;;;4999840;28;20133;-93
2023/02/03 01:12:35;;;;;;;13.90;3.58;;;9.20;99.90;;;;;;4966156;28;20054;-90
2023/02/03 01:15:00;;;;;;;14.05;3.33;;;9.20;99.90;;;;;;4997223;28;20037;-90
2023/02/03 01:17:28;;;;;;;19.98;3.67;;;9.20;99.90;;;;;;4997267;28;20121;-90
2023/02/03 01:19:54;;;;;;;13.55;3.25;;;9.30;99.90;;;;;;4981470;28;20104;-90
2023/02/03 01:22:23;;;;;;;20.88;4.07;;;9.30;99.90;;;;;;4981279;28;20042;-90
2023/02/03 01:24:49;;;;;;;17.48;4.15;;;9.20;99.90;;;;;;4981185;28;20034;-90
2023/02/03 01:27:28;;;;;;;18.92;3.85;;;9.30;99.90;;;;;;4997704;28;20040;-90
2023/02/03 01:29:54;;;;;;;16.15;4.72;;;9.30;99.90;;;;;;4969557;28;20053;-91
2023/02/03 01:32:23;;;;;;;15.30;2.55;;;9.20;99.90;;;;;;4984643;28;20026;-90
2023/02/03 01:34:49;;;;;;;19.15;3.50;;;9.30;99.90;;;;;;4997654;28;20030;-91
2023/02/03 01:37:16;;;;;;;19.98;3.85;;;9.30;99.90;;;;;;4997294;28;20033;-91
2023/02/03 01:39:43;;;;;;;12.80;3.42;;;9.30;99.90;;;;;;4997266;28;20029;-91
2023/02/03 01:42:12;;;;;;;15.80;3.17;;;9.30;99.90;;;;;;4997371;28;20116;-90
2023/02/03 01:44:48;;;;;;;18.30;3.35;;;9.30;99.90;;;;;;4997995;28;20065;-93
2023/02/03 01:47:28;;;;;;;14.75;2.92;;;9.30;99.90;;;;;;4997853;28;20061;-91
2023/02/03 01:49:58;;;;;;;14.80;3.17;;;9.30;99.90;;;;;;4999036;28;20042;-91
2023/02/03 01:52:25;;;;;;;18.02;4.15;;;9.30;99.90;;;;;;5000708;28;20038;-92
2023/02/03 01:54:52;;;;;;;19.95;3.13;;;9.30;99.90;;;;;;4999846;28;20076;-91
2023/02/03 01:57:24;;;;;;;13.55;3.10;;;9.30;99.90;;;;;;4981513;28;20100;-91
2023/02/03 01:59:53;;;;;;;8.52;2.65;;;9.30;99.90;;;;;;5000934;28;20049;-91
2023/02/03 02:02:19;;;;;;;15.00;3.47;;;9.30;99.90;;;;;;5013433;28;20560;-93
2023/02/03 02:05:04;;;;;;;16.52;3.20;;;9.30;99.90;;;;;;5020975;28;20042;-92
2023/02/03 02:07:35;;;;;;;17.63;3.78;;;9.30;99.90;;;;;;5021128;28;20137;-92
2023/02/03 02:10:02;;;;;;;13.30;3.20;;;9.30;99.90;;;;;;5006320;28;20042;-92
2023/02/03 02:12:32;;;;;;;15.85;3.28;;;9.30;99.90;;;;;;5019255;28;20041;-92
2023/02/03 02:14:59;;;;;;;13.50;3.15;;;9.30;99.90;;;;;;4997873;28;20040;-92
2023/02/03 02:17:52;;;;;;;14.00;3.90;;;9.30;99.90;;;;;;5013948;28;20077;-92
2023/02/03 02:20:39;;;;;;;13.82;3.20;;;9.30;99.90;;;;;;5001013;28;20501;-91
2023/02/03 02:23:42;;;;;;;12.38;2.92;;;9.30;99.90;;;;;;5001196;28;20038;-90
2023/02/03 02:26:33;;;;;;;16.38;2.83;;;9.30;99.90;;;;;;5001049;28;20494;-91
2023/02/03 02:29:21;;;;;;;14.48;3.92;;;9.30;99.90;;;;;;4995739;28;20384;-91
2023/02/03 02:32:16;;;;;;;15.98;3.33;;;9.30;99.90;;;;;;5000222;28;20041;-90
2023/02/03 02:35:06;;;;;;;15.00;2.90;;;9.20;99.90;;;;;;5001830;28;20510;-92
2023/02/03 02:38:03;;;;;;;15.18;2.92;;;9.30;99.90;;;;;;5128656;23;20049;-93
2023/02/03 02:40:49;;;;;;;15.57;3.40;;;9.30;99.90;;;;;;5021432;28;20041;-93
2023/02/03 02:43:33;;;;;;;14.00;3.10;;;9.30;99.90;;;;;;5025498;28;20042;-94
2023/02/03 02:46:03;;;;;;;9.88;3.03;;;9.30;99.90;;;;;;5037269;28;20038;-93
2023/02/03 02:48:36;;;;;;;15.40;2.88;;;9.20;99.90;;;;;;5036422;28;20054;-93
2023/02/03 02:51:05;;;;;;;12.07;3.20;;;9.30;99.90;;;;;;5030064;28;20395;-93
2023/02/03 02:53:38;;;;;;;14.75;2.78;;;9.30;99.90;;;;;;5016598;28;20037;-93
2023/02/03 02:56:07;;;;;;;13.60;3.10;;;9.30;99.90;;;;;;5016591;28;20041;-93
2023/02/03 02:58:36;;;;;;;11.63;2.85;;;9.30;99.90;;;;;;5016476;28;20037;-93
2023/02/03 03:01:02;;;;;;;13.63;3.15;;;9.30;99.90;;;;;;5016492;28;20029;-94
2023/02/03 03:03:28;;;;;;;11.90;2.50;;;9.30;99.90;;;;;;5017345;28;20060;-93
2023/02/03 03:06:05;;;;;;;10.85;2.38;;;9.30;99.90;;;;;;5000566;28;20038;-93
2023/02/03 03:08:40;;;;;;;12.32;2.42;;;9.30;99.90;;;;;;5020316;28;20080;-93
2023/02/03 03:11:06;;;;;;;14.00;3.05;;;9.30;99.90;;;;;;5015420;28;20034;-93
2023/02/03 03:13:38;;;;;;;10.52;2.40;;;9.20;99.90;;;;;;5000172;28;20034;-93
2023/02/03 03:16:07;;;;;;;11.25;2.63;;;9.30;99.90;;;;;;5016838;28;20034;-93
2023/02/03 03:18:47;;;;;;;13.10;2.40;;;9.20;99.90;;;;;;5017649;28;20096;-93
2023/02/03 03:21:19;;;;;;;13.20;3.67;;;9.30;99.90;;;;;;5019158;28;20037;-93
2023/02/03 03:23:49;;;;;;;14.07;2.95;;;9.30;99.90;;;;;;5023286;28;20172;-93
2023/02/03 03:26:31;;;;;;;13.90;2.95;;;9.30;99.90;;;;;;5016703;28;20030;-93
2023/02/03 03:29:14;;;;;;;13.50;2.78;;;9.30;99.90;;;;;;5016721;28;20038;-93
2023/02/03 03:31:40;;;;;;;12.07;2.85;;;9.30;99.90;;;;;;5015711;28;20041;-92
2023/02/03 03:34:09;;;;;;;16.60;4.38;;;9.30;99.90;;;;;;5000041;28;20034;-93
2023/02/03 03:36:53;;;;;;;10.50;3.22;;;9.30;99.90;;;;;;5019881;28;21131;-93
2023/02/03 03:39:41;;;;;;;12.05;2.47;;;9.30;99.90;;;;;;5019516;28;20044;-92
2023/02/03 03:42:46;;;;;;;13.52;2.85;;;9.30;99.90;;;;;;5019448;28;20045;-91
2023/02/03 03:45:27;;;;;;;13.30;2.80;;;9.30;99.90;;;;;;5014606;28;20470;-91
2023/02/03 03:48:06;;;;;;;16.92;3.05;;;9.30;99.90;;;;;;5019152;28;20124;-91
2023/02/03 03:50:37;;;;;;;15.45;2.97;;;9.30;99.90;;;;;;5019233;28;20037;-91
2023/02/03 03:53:14;;;;;;;11.95;2.50;;;9.30;99.90;;;;;;5019064;28;20033;-91
2023/02/03 03:55:41;;;;;;;18.08;3.08;;;9.30;99.90;;;;;;5003409;28;20113;-92
2023/02/03 03:58:11;;;;;;;19.60;2.88;;;9.30;99.90;;;;;;5019444;28;20382;-93
2023/02/03 04:00:40;;;;;;;13.77;3.20;;;9.40;99.90;;;;;;5018606;28;20033;-92
2023/02/03 04:03:32;;;;;;;12.93;2.70;;;9.30;99.90;;;;;;5018352;28;20029;-91
2023/02/03 04:05:57;;;;;;;13.98;2.50;;;9.40;99.90;;;;;;5018652;28;20041;-91
2023/02/03 04:08:32;;;;;;;11.80;2.97;;;9.40;99.90;;;;;;5003851;28;20041;-91
2023/02/03 04:10:58;;;;;;;18.63;3.28;;;9.40;99.90;;;;;;5018488;28;20488;-91
2023/02/03 04:13:28;;;;;;;12.18;2.85;;;9.40;99.90;;;;;;5003202;28;20452;-91
2023/02/03 04:15:53;;;;;;;10.45;2.60;;;9.40;99.90;;;;;;5018581;28;20033;-91
2023/02/03 04:18:23;;;;;;;17.13;2.92;;;9.40;99.90;;;;;;5019721;28;20033;-91
2023/02/03 04:20:49;;;;;;;12.93;2.47;;;9.40;99.90;;;;;;5018484;28;20075;-91
2023/02/03 04:23:17;;;;;;;16.17;2.78;;;9.40;99.90;;;;;;5002864;28;20394;-91
2023/02/03 04:25:43;;;;;;;11.57;2.30;;;9.40;99.90;;;;;;5011532;28;20046;-91
2023/02/03 04:28:12;;;;;;;12.70;2.40;;;9.40;99.90;;;;;;5009193;28;20470;-91
2023/02/03 04:30:38;;;;;;;10.45;2.60;;;9.40;99.90;;;;;;5008958;28;20049;-91
2023/02/03 04:33:03;;;;;;;11.35;3.35;;;9.50;99.90;;;;;;5007241;28;20042;-92
2023/02/03 04:35:29;;;;;;;12.85;2.70;;;9.40;99.90;;;;;;5021185;28;20060;-93
2023/02/03 04:37:58;;;;;;;13.18;2.60;;;9.50;99.90;;;;;;5007715;28;20033;-92
2023/02/03 04:40:23;;;;;;;13.45;3.05;;;9.50;99.90;;;;;;5023502;28;20045;-92
2023/02/03 04:42:50;;;;;;;11.77;2.33;;;9.50;99.90;;;;;;5024949;28;20044;-92
2023/02/03 04:45:16;;;;;;;14.90;2.03;;;9.50;99.90;;;;;;5024809;28;20037;-93
2023/02/03 04:47:42;;;;;;;7.55;1.80;;;9.50;99.90;;;;;;4990713;28;20020;-93
2023/02/03 04:50:08;;;;;;;10.27;2.28;;;9.50;99.90;;;;;;5020031;28;20581;-93
2023/02/03 04:52:43;;;;;;;13.32;2.35;;;9.50;99.90;;;;;;4986155;28;20038;-92
2023/02/03 04:55:09;;;;;;;11.35;2.35;;;9.50;99.90;;;;;;5018820;28;20121;-93
2023/02/03 04:57:36;;;;;;;12.43;2.60;;;9.50;99.90;;;;;;5020826;28;20052;-92
2023/02/03 05:00:02;;;;;;;12.55;1.92;;;9.50;99.90;;;;;;5020329;28;20037;-92
2023/02/03 05:02:28;;;;;;;13.40;2.13;;;9.60;99.90;;;;;;5002104;28;20041;-93
2023/02/03 05:04:54;;;;;;;8.68;1.70;;;9.50;99.90;;;;;;5019362;28;20120;-91
2023/02/03 05:07:21;;;;;;;10.57;2.20;;;9.60;99.90;;;;;;4986142;28;20072;-91
2023/02/03 05:09:47;;;;;;;9.55;2.10;;;9.60;99.90;;;;;;5018664;28;20041;-91
2023/02/03 05:12:16;;;;;;;11.13;2.00;;;9.60;99.90;;;;;;5018915;28;20029;-91
2023/02/03 05:14:42;;;;;;;12.73;2.33;;;9.60;99.90;;;;;;5002766;28;20037;-91
2023/02/03 05:17:08;;;;;;;10.20;1.90;;;9.60;99.90;;;;;;4986548;28;20026;-91
2023/02/03 05:19:34;;;;;;;10.77;2.65;;;9.60;99.90;;;;;;4985371;28;20049;-90
2023/02/03 05:21:59;;;;;;;13.88;3.00;;;9.60;99.90;;;;;;5019014;28;20025;-89
2023/02/03 05:24:25;;;;;;;9.95;2.88;;;9.60;99.90;;;;;;5003258;28;20494;-90
2023/02/03 05:26:51;;;;;;;13.25;2.65;;;9.60;99.90;;;;;;4985927;28;20030;-89
2023/02/03 05:29:17;;;;;;;10.02;2.00;;;9.60;99.90;;;;;;4989161;28;20398;-90
2023/02/03 05:31:42;;;;;;;12.32;2.28;;;9.60;99.90;;;;;;4999053;28;20045;-90
2023/02/03 05:34:08;;;;;;;7.93;2.13;;;9.60;99.90;;;;;;5001981;28;20072;-90
2023/02/03 05:36:33;;;;;;;14.02;2.67;;;9.60;99.90;;;;;;5003247;28;20102;-90
2023/02/03 05:38:59;;;;;;;9.52;1.90;;;9.60;99.90;;;;;;5014110;28;20026;-92
2023/02/03 05:44:09;;;;;;;13.50;2.00;;;9.60;99.90;;;;;;5009490;28;20041;-92
2023/02/03 05:46:35;;;;;;;10.82;3.05;;;9.60;99.90;;;;;;5003058;28;20479;-92
2023/02/03 05:49:01;;;;;;;9.82;1.95;;;9.60;99.90;;;;;;4985938;28;20133;-93
2023/02/03 05:51:27;;;;;;;13.07;2.92;;;9.60;99.90;;;;;;5002280;28;20046;-93
2023/02/03 05:53:53;;;;;;;13.45;2.80;;;9.60;99.90;;;;;;5001160;28;20049;-93
2023/02/03 05:56:18;;;;;;;9.82;2.30;;;9.60;99.90;;;;;;4985571;28;20037;-91
2023/02/03 05:58:44;;;;;;;12.10;2.25;;;9.60;99.90;;;;;;4984553;28;20129;-91
2023/02/03 06:01:10;;;;;;;10.75;1.85;;;9.60;99.90;;;;;;4984328;28;20070;-90
2023/02/03 06:03:36;;;;;;;9.82;2.50;;;9.60;99.90;;;;;;5003447;28;20038;-91
2023/02/03 06:06:02;;;;;;;13.73;3.35;;;9.60;99.90;;;;;;5008629;28;20096;-91
2023/02/03 06:08:28;;;;;;;15.60;2.50;;;9.60;99.90;;;;;;4984426;28;20033;-92
2023/02/03 06:10:58;;;;;;;18.02;2.63;;;9.60;99.90;;;;;;4967988;28;20049;-93
2023/02/03 06:13:27;;;;;;;11.32;2.70;;;9.60;99.90;;;;;;5000919;28;20037;-93
2023/02/03 06:15:53;;;;;;;14.63;2.33;;;9.60;99.90;;;;;;5001773;28;20037;-93
2023/02/03 06:18:20;;;;;;;9.35;2.35;;;9.60;99.90;;;;;;5003691;28;20026;-92
2023/02/03 06:20:46;;;;;;;11.52;2.40;;;9.60;99.90;;;;;;5002466;28;20491;-93
2023/02/03 06:23:31;;;;;;;11.02;2.70;;;9.60;99.90;;;;;;5005836;28;20041;-91
2023/02/03 06:25:59;;;;;;;13.43;2.22;;;9.70;99.90;;;;;;5004438;28;20382;-93
2023/02/03 06:28:25;;;;;;;13.25;2.88;;;9.60;99.90;;;;;;5001046;28;20096;-92
2023/02/03 06:30:51;;;;;;;15.77;3.40;;;9.60;99.90;;;;;;5001106;28;20057;-92
2023/02/03 06:33:22;;;;;;;10.40;1.90;;;9.60;99.90;;;;;;5001078;28;20050;-92
2023/02/03 06:35:47;;;;;;;16.75;2.53;;;9.60;99.90;;;;;;5000673;28;20092;-92
2023/02/03 06:38:18;;;;;;;14.93;3.63;;;9.60;99.90;;;;;;4984589;28;20046;-92
2023/02/03 06:40:46;;;;;;;15.00;2.92;;;9.60;99.90;;;;;;4969032;28;20069;-92
2023/02/03 06:43:12;;;;;;;11.65;2.58;;;9.60;99.90;;;;;;5001747;28;20034;-92
2023/02/03 06:45:38;;;;;;;10.48;2.60;;;9.60;99.90;;;;;;5005512;28;20038;-92
2023/02/03 06:48:07;;;;;;;10.70;3.20;;;9.60;99.90;;;;;;4978704;28;20064;-92
2023/02/03 06:50:33;;;;;;;12.05;2.70;;;9.60;99.90;;;;;;5009097;28;20053;-92
2023/02/03 06:53:02;;;;;;;18.05;2.65;;;9.60;99.90;;;;;;4978615;28;20034;-93
2023/02/03 06:55:28;;;;;;;13.07;2.63;;;9.70;99.90;;;;;;4991719;28;20364;-92
2023/02/03 06:57:54;;;;;;;12.93;3.00;;;9.60;99.90;;;;;;4976588;28;20014;-93
2023/02/03 07:00:21;;;;;;;13.82;3.20;;;9.60;99.90;;;;;;5010223;28;20041;-92
2023/02/03 07:02:58;;;;;;;16.98;4.07;;;9.60;99.90;;;;;;4985273;28;20038;-91
2023/02/03 07:05:26;;;;;;;15.95;2.92;;;9.60;99.90;;;;;;5000177;28;20037;-91
2023/02/03 07:07:57;;;;;;;10.63;3.13;;;9.70;99.90;;;;;;4984102;28;20026;-92
2023/02/03 07:10:23;;;;;;;14.93;3.00;;;9.70;99.90;;;;;;4999822;28;20406;-91
2023/02/03 07:12:50;;;;;;;14.93;2.92;;;9.60;99.90;;;;;;4999739;28;20030;-91
2023/02/03 07:15:16;;;;;;;9.43;2.20;;;9.60;99.90;;;;;;5000101;28;20045;-91
2023/02/03 07:17:53;;;;;;;9.48;2.58;;;9.70;99.90;;;;;;4985881;28;20074;-93
2023/02/03 07:20:19;;;;;;;12.75;3.00;;;9.60;99.90;;;;;;5008400;28;20038;-93
2023/02/03 07:22:50;;;;;;;11.80;2.88;;;9.70;99.90;;;;;;4984402;28;20108;-92
2023/02/03 07:25:15;;;;;;;14.95;2.97;;;9.70;99.90;;;;;;5000080;28;20034;-93
2023/02/03 07:27:42;;;;;;;9.25;2.83;;;9.70;99.90;;;;;;4999571;28;20084;-93
2023/02/03 07:30:08;;;;;;;14.50;3.60;;;9.70;99.90;;;;;;5000270;28;20451;-93
2023/02/03 07:32:35;;;;;;;13.10;2.50;;;9.60;99.90;;;;;;4967189;28;20038;-92
2023/02/03 07:35:01;;;;;;;15.50;3.08;;;9.70;99.90;;;;;;5007045;28;20069;-93
2023/02/03 07:37:29;;;;;;;18.75;2.85;;;9.70;99.90;;;;;;4979808;28;20043;-92
2023/02/03 07:39:55;;;;;;;13.73;3.08;;;9.60;99.90;;;;;;4981368;28;20507;-92
2023/02/03 07:42:22;;;;;;;11.98;3.08;;;9.70;99.90;;;;;;4996201;28;20027;-92
2023/02/03 07:44:47;;;;;;;19.85;2.88;;;9.70;99.90;;;;;;4997409;28;20030;-92
2023/02/03 07:47:13;;;;;;;13.60;2.50;;;9.70;99.90;;;;;;4980003;28;20038;-93
2023/02/03 07:49:39;;;;;;;16.63;3.25;;;9.70;99.90;;;;;;4996562;28;20110;-92
2023/02/03 07:52:05;;;;;;;13.25;2.33;;;9.70;99.90;;;;;;4988533;28;20054;-90
2023/02/03 07:54:30;;;;;;;14.32;3.78;;;9.70;99.90;;;;;;5012453;28;20447;-90
2023/02/03 07:56:56;;;;;;;19.42;3.42;;;9.70;99.90;;;;;;4983488;28;20053;-90
2023/02/03 07:59:22;;;;;;;12.75;2.80;;;9.70;99.90;;;;;;4985002;28;20038;-90
2023/02/03 08:01:47;;;;;;;12.93;2.83;;;9.70;99.90;;;;;;4995070;28;20034;-91
2023/02/03 08:04:15;;;;;;;16.10;2.95;;;9.70;99.90;;;;;;4985182;28;20038;-91
2023/02/03 08:06:42;;;;;;;16.73;2.55;;;9.70;99.90;;;;;;4967498;28;20099;-91
2023/02/03 08:09:08;;;;;;;17.67;3.30;;;9.70;99.90;;;;;;4997049;28;20039;-91
2023/02/03 08:11:34;;;;;;;12.75;2.83;;;9.70;99.90;;;;;;4979170;28;20383;-92
2023/02/03 08:13:59;;;;;;;10.80;2.78;;;9.70;99.90;;;;;;4979131;28;20034;-92
2023/02/03 08:16:25;;;;;;;12.02;3.10;;;9.70;99.90;;;;;;4995114;28;20027;-92
2023/02/03 08:18:52;;;;;;;15.55;2.67;;;9.70;99.90;;;;;;4979258;28;20039;-92
2023/02/03 08:21:17;;;;;;;15.35;3.33;;;9.70;99.90;;;;;;4995813;28;20034;-92
2023/02/03 08:23:43;;;;;;;13.20;2.72;;;9.70;99.90;;;;;;4988161;28;20034;-92
2023/02/03 08:26:09;;;;;;;12.10;3.22;;;9.80;99.90;;;;;;4990522;28;20071;-91
2023/02/03 08:28:37;;;;;;;8.75;2.33;;;9.80;99.90;;;;;;4976805;28;20081;-91
2023/02/03 08:31:09;;;;;;;17.90;3.80;;;9.80;99.90;;;;;;4990264;28;20057;-91
2023/02/03 08:33:35;;;;;;;15.07;2.97;;;9.80;99.90;;;;;;4999039;28;20499;-92
2023/02/03 08:36:01;;;;;;;15.80;2.70;;;9.80;99.90;;;;;;4987522;28;20034;-91
2023/02/03 08:38:27;;;;;;;12.93;2.85;;;9.80;99.90;;;;;;5001872;28;20038;-91
2023/02/03 08:40:53;;;;;;;19.80;3.83;;;9.80;99.90;;;;;;4984105;28;20046;-91
2023/02/03 08:43:19;;;;;;;15.77;3.00;;;9.80;99.90;;;;;;4995555;28;20046;-91
2023/02/03 08:45:45;;;;;;;12.35;2.95;;;9.80;99.90;;;;;;5013745;28;20046;-91
2023/02/03 08:48:13;;;;;;;13.20;2.78;;;9.80;99.90;;;;;;4978872;28;20085;-91
2023/02/03 08:50:41;;;;;;;14.05;2.65;;;9.80;99.90;;;;;;4982121;28;20125;-92
2023/02/03 08:53:07;;;;;;;12.70;3.47;;;9.90;99.90;;;;;;5009157;28;20052;-90
2023/02/03 08:55:33;;;;;;;12.25;2.92;;;9.90;99.90;;;;;;4997760;28;20034;-91
2023/02/03 08:58:13;;;;;;;14.45;3.60;;;9.80;99.90;;;;;;4988908;28;20122;-91
2023/02/03 09:00:40;;;;;;;14.65;3.13;;;9.90;99.90;;;;;;4971968;28;20100;-91
2023/02/03 09:03:14;;;;;;;11.93;3.00;;;9.90;99.90;;;;;;4987142;28;20042;-91
2023/02/03 09:05:40;;;;;;;17.23;3.33;;;9.90;99.90;;;;;;4971010;28;20031;-91
2023/02/03 09:08:06;;;;;;;12.23;3.13;;;9.90;99.90;;;;;;4992105;28;20099;-91
2023/02/03 09:10:35;;;;;;;12.00;3.17;;;9.90;99.90;;;;;;5011511;28;20038;-91
2023/02/03 09:13:04;;;;;;;18.98;2.85;;;9.90;99.90;;;;;;5003108;28;20088;-91
2023/02/03 09:15:30;;;;;;;11.32;2.78;;;9.90;99.90;;;;;;5004383;28;20427;-92
2023/02/03 09:17:56;;;;;;;13.50;3.78;;;9.90;99.90;;;;;;4997500;28;20030;-92
2023/02/03 09:20:24;;;;;;;19.00;3.20;;;10.00;99.90;;;;;;5007293;28;20096;-91
2023/02/03 09:22:53;;;;;;;12.32;2.70;;;10.00;99.90;;;;;;5003869;28;20065;-91
2023/02/03 09:25:19;;;;;;;13.68;3.17;;;10.00;99.90;;;;;;5008214;28;20117;-90
2023/02/03 09:27:45;;;;;;;13.68;2.80;;;10.00;99.90;;;;;;4980100;28;20069;-91
2023/02/03 09:30:12;;;;;;;13.43;2.92;;;10.00;99.90;;;;;;4977988;28;20070;-91
2023/02/03 09:32:38;;;;;;;10.10;2.80;;;10.10;99.90;;;;;;4991581;28;20057;-91
2023/02/03 09:35:04;;;;;;;15.50;3.65;;;10.10;99.90;;;;;;5007571;28;20034;-91
2023/02/03 09:37:32;;;;;;;13.15;2.60;;;10.00;99.90;;;;;;5009042;28;20089;-90
2023/02/03 09:39:58;;;;;;;10.60;2.45;;;10.10;99.90;;;;;;4992480;28;20034;-90
2023/02/03 09:42:52;;;;;;;13.43;2.85;;;10.10;99.90;;;;;;5002033;28;20045;-90
2023/02/03 09:45:26;;;;;;;11.57;2.78;;;10.10;99.90;;;;;;5002977;28;20046;-90
2023/02/03 09:47:54;;;;;;;11.40;2.72;;;10.10;99.90;;;;;;5012840;28;20034;-90
2023/02/03 09:50:23;;;;;;;10.50;3.05;;;10.10;99.90;;;;;;5009602;28;20129;-90
2023/02/03 09:52:50;;;;;;;8.93;2.70;;;10.10;99.90;;;;;;5005987;28;20073;-90
2023/02/03 09:55:24;;;;;;;11.10;3.08;;;10.20;99.90;;;;;;4988617;28;20543;-91
2023/02/03 09:57:59;;;;;;;10.23;2.25;;;10.20;99.90;;;;;;5005605;28;20038;-90
2023/02/03 10:00:45;;;;;;;13.68;2.78;;;10.20;99.90;;;;;;5004783;28;20383;-90
2023/02/03 10:03:17;;;;;;;13.70;2.95;;;10.20;99.90;;;;;;5004436;28;20045;-90
2023/02/03 10:06:15;;;;;;;16.00;3.33;;;10.20;99.90;;;;;;4994965;28;20066;-92
2023/02/03 10:09:23;;;;;;;8.93;2.85;;;10.20;99.90;;;;;;4994441;28;20039;-92
2023/02/03 10:11:57;;;;;;;13.82;3.15;;;10.20;99.90;;;;;;5009059;28;20112;-92
2023/02/03 10:14:54;;;;;;;13.45;2.40;;;10.20;99.90;;;;;;5002749;28;20125;-92
2023/02/03 10:17:40;;;;;;;12.65;2.60;;;10.20;99.90;;;;;;5014139;28;20034;-92
2023/02/03 10:20:17;;;;;;;14.80;2.53;;;10.20;99.90;;;;;;5014415;28;20495;-92
2023/02/03 10:22:53;;;;;;;20.38;4.25;;;10.30;99.90;;;;;;5018275;28;20494;-92
2023/02/03 10:25:28;;;;;;;11.38;2.85;;;10.30;99.90;;;;;;5008986;28;20034;-93
2023/02/03 10:28:01;;;;;;;9.07;2.25;;;10.30;99.90;;;;;;4998037;28;20488;-93
2023/02/03 10:30:31;;;;;;;10.77;2.75;;;10.30;99.90;;;;;;5005450;28;20034;-92
2023/02/03 10:33:21;;;;;;;10.13;2.10;;;10.30;99.90;;;;;;5014256;28;20025;-91
2023/02/03 10:35:56;;;;;;;11.93;2.58;;;10.30;99.90;;;;;;5027692;28;20038;-91
2023/02/03 10:38:34;;;;;;;8.40;2.15;;;10.40;99.90;;;;;;5024836;28;20050;-92
2023/02/03 10:40:59;;;;;;;13.52;2.42;;;10.40;99.90;;;;;;5007388;28;20041;-91
2023/02/03 10:46:16;;;;;;;18.92;4.15;;;10.40;99.90;;;;;;5004033;28;20049;-91
2023/02/03 10:48:42;;;;;;;11.10;2.40;;;10.40;99.90;;;;;;5018877;28;20025;-91
2023/02/03 10:51:21;;;;;;;13.18;2.60;;;10.40;99.90;;;;;;5011570;28;20042;-91
2023/02/03 10:53:51;;;;;;;14.23;3.03;;;10.40;99.90;;;;;;5029066;28;20088;-91
2023/02/03 10:56:21;;;;;;;10.57;2.50;;;10.40;99.90;;;;;;5000301;28;20030;-91
2023/02/03 10:58:55;;;;;;;10.15;2.78;;;10.40;99.90;;;;;;5004633;28;20498;-91
2023/02/03 11:01:37;;;;;;;11.73;2.78;;;10.50;99.90;;;;;;5005037;28;20119;-91
2023/02/03 11:04:04;;;;;;;10.85;2.83;;;10.50;99.90;;;;;;5006997;28;20122;-92
2023/02/03 11:06:32;;;;;;;23.17;3.00;;;10.50;99.90;;;;;;4986831;28;20054;-91
2023/02/03 11:08:59;;;;;;;13.15;2.50;;;10.50;99.90;;;;;;5008386;28;20126;-91
2023/02/03 11:11:30;;;;;;;13.07;2.40;;;10.50;99.90;;;;;;5005127;28;20034;-91
2023/02/03 11:14:10;;;;;;;;;;;10.50;99.90;;;;;;5009583;28;20057;-91
2023/02/03 11:16:37;;;;;;;11.90;2.60;;;10.50;99.90;;;;;;5007654;28;19972;-91
2023/02/03 11:19:18;;;;;;;10.40;2.60;;;10.50;99.90;;;;;;5010345;28;20030;-91
2023/02/03 11:21:48;;;;;;;10.57;2.40;;;10.50;99.90;;;;;;5012940;28;20034;-91
2023/02/03 11:24:21;;;;;;;8.55;2.20;;;10.50;99.90;;;;;;5012819;28;20042;-91
2023/02/03 11:26:55;;;;;;;12.77;2.70;;;10.50;99.90;;;;;;5011850;28;20122;-91
2023/02/03 11:29:33;;;;;;;12.32;2.58;;;10.50;99.90;;;;;;5015506;28;20387;-93
2023/02/03 11:32:40;;;;;;;7.32;2.30;;;10.60;99.90;;;;;;5015047;28;20114;-93
2023/02/03 11:35:26;;;;;;;13.80;2.92;;;10.60;99.90;;;;;;4963581;28;20038;-93
2023/02/03 11:37:57;;;;;;;12.45;3.55;;;10.60;99.90;;;;;;5007468;28;20043;-92
2023/02/03 11:40:24;;;;;;;11.23;3.80;;;10.60;99.90;;;;;;5015969;28;20069;-92
2023/02/03 11:42:56;;;;;;;11.10;2.53;;;10.60;99.90;;;;;;5011742;28;20435;-92
2023/02/03 11:45:34;;;;;;;8.77;2.60;;;10.60;99.90;;;;;;5010000;28;20439;-91
2023/02/03 11:48:14;;;;;;;8.75;2.72;;;10.70;99.90;;;;;;5001583;28;20479;-91
2023/02/03 11:51:17;;;;;;;8.40;2.50;;;10.70;99.90;;;;;;5014638;28;20034;-91
2023/02/03 11:53:51;;;;;;;8.43;2.25;;;10.70;99.90;;;;;;5003008;28;20042;-91
2023/02/03 11:56:55;;;;;;;9.93;2.65;;;10.70;99.90;;;;;;5009260;28;20479;-91
2023/02/03 11:59:21;;;;;;;10.30;2.50;;;10.70;99.90;;;;;;5008407;28;20034;-91
2023/02/03 12:01:56;;;;;;;10.90;3.17;;;10.70;99.90;;;;;;4999237;28;20068;-91
2023/02/03 12:04:37;;;;;;;11.23;2.83;;;10.80;99.90;;;;;;5007424;28;20034;-92
2023/02/03 12:07:24;;;;;;;8.45;2.42;;;10.80;99.90;;;;;;4997669;28;20038;-94
2023/02/03 12:09:58;;;;;;;14.70;3.13;;;10.80;99.90;;;;;;5002010;28;20567;-91
2023/02/03 12:12:44;;;;;;;11.68;2.30;;;10.80;99.90;;;;;;5009619;28;20030;-91
2023/02/03 12:15:34;;;;;;;11.52;2.80;;;10.80;99.90;;;;;;5010021;28;20042;-93
2023/02/03 12:18:28;;;;;;;9.15;2.42;;;10.90;99.90;;;;;;5005067;28;20471;-91
2023/02/03 12:21:05;;;;;;;9.45;2.88;;;10.90;99.90;;;;;;5003862;28;20082;-93
2023/02/03 12:23:49;;;;;;;9.55;2.15;;;10.90;99.90;;;;;;4995473;28;20039;-92
2023/02/03 12:26:48;;;;;;;14.25;3.05;;;10.90;99.90;;;;;;5003742;28;20495;-92
2023/02/03 12:29:43;;;;;;;11.18;3.47;;;10.90;99.90;;;;;;5008740;28;20037;-92
2023/02/03 12:32:19;;;;;;;9.55;2.10;;;10.90;99.90;;;;;;4991130;28;20066;-92
2023/02/03 12:34:56;;;;;;;9.88;2.17;;;11.00;99.90;;;;;;5000713;28;20031;-91
2023/02/03 12:37:28;;;;;;;12.07;2.75;;;10.90;99.90;;;;;;5004140;28;20131;-90
2023/02/03 12:39:59;;;;;;;9.90;2.80;;;10.90;99.90;;;;;;5018693;28;20042;-93
2023/02/03 12:42:34;;;;;;;11.15;2.78;;;10.90;99.90;;;;;;5020695;28;20030;-92
2023/02/03 12:45:22;;;;;;;12.40;2.58;;;11.00;99.90;;;;;;5023456;28;20037;-93
2023/02/03 12:47:57;;;;;;;5.45;2.47;;;11.00;99.90;;;;;;5017322;28;20065;-93
2023/02/03 12:50:44;;;;;;;11.05;3.00;;;11.00;99.90;;;;;;5014400;28;20034;-93
2023/02/03 12:53:20;;;;;;;11.70;3.70;;;10.90;99.90;;;;;;4998162;28;20496;-90
2023/02/03 12:56:01;;;;;;;12.50;3.03;;;10.90;99.90;;;;;;4987708;28;20436;-90
2023/02/03 12:58:51;;;;;;;10.30;2.60;;;10.90;99.90;;;;;;5005169;28;20056;-91
2023/02/03 13:01:32;;;;;;;10.68;2.92;;;10.90;99.90;;;;;;4999213;28;20048;-90
2023/02/03 13:04:19;;;;;;;12.23;2.47;;;10.90;99.90;;;;;;5007056;28;20088;-90
2023/02/03 13:06:48;;;;;;;14.38;3.47;;;10.80;99.90;;;;;;4998713;28;20042;-90
2023/02/03 13:09:48;;;;;;;13.40;3.33;;;10.80;99.90;;;;;;5006301;28;20061;-90
2023/02/03 13:12:59;;;;;;;11.75;2.70;;;10.80;99.90;;;;;;5007027;28;20129;-90
2023/02/03 13:15:30;;;;;;;17.65;3.08;;;10.70;99.90;;;;;;5003729;28;20089;-90